sensor_id;sensor_type;location;lat;lon;timestamp;P1;durP1;ratioP1;P2;durP2;ratioP2
77078;SDS011;66004;55.096;38.760;2023-04-06T05:40:52;9.40;;;2.33;;
77078;SDS011;66004;55.096;38.760;2023-04-06T05:45:46;5.20;;;2.55;;
77078;SDS011;66004;55.096;38.760;2023-04-06T05:48:12;7.72;;;1.85;;
77078;SDS011;66004;55.096;38.760;2023-04-06T05:53:03;7.45;;;2.78;;
77078;SDS011;66004;55.096;38.760;2023-04-06T05:55:28;9.73;;;2.80;;
77078;SDS011;66004;55.096;38.760;2023-04-06T06:00:20;4.03;;;1.80;;
77078;SDS011;66004;55.096;38.760;2023-04-06T06:02:45;6.18;;;2.20;;
77078;SDS011;66004;55.096;38.760;2023-04-06T06:07:36;34.88;;;3.30;;
77078;SDS011;66004;55.096;38.760;2023-04-06T06:12:28;9.02;;;2.53;;
77078;SDS011;66004;55.096;38.760;2023-04-06T06:17:19;5.63;;;1.90;;
77078;SDS011;66004;55.096;38.760;2023-04-06T06:22:10;4.90;;;1.98;;
77078;SDS011;66004;55.096;38.760;2023-04-06T06:27:01;22.23;;;2.90;;
77078;SDS011;66004;55.096;38.760;2023-04-06T06:31:52;4.90;;;2.05;;
77078;SDS011;66004;55.096;38.760;2023-04-06T06:36:42;17.80;;;2.55;;
77078;SDS011;66004;55.096;38.760;2023-04-06T06:41:33;10.82;;;2.30;;
77078;SDS011;66004;55.096;38.760;2023-04-06T06:43:59;13.05;;;2.50;;
77078;SDS011;66004;55.096;38.760;2023-04-06T06:46:25;6.38;;;2.00;;
77078;SDS011;66004;55.096;38.760;2023-04-06T06:48:50;8.13;;;2.30;;
77078;SDS011;66004;55.096;38.760;2023-04-06T06:51:16;16.52;;;2.42;;
77078;SDS011;66004;55.096;38.760;2023-04-06T06:56:07;7.65;;;2.60;;
77078;SDS011;66004;55.096;38.760;2023-04-06T07:00:58;6.82;;;1.80;;
77078;SDS011;66004;55.096;38.760;2023-04-06T07:03:24;6.38;;;2.58;;
77078;SDS011;66004;55.096;38.760;2023-04-06T07:08:19;19.70;;;3.15;;
77078;SDS011;66004;55.096;38.760;2023-04-06T07:10:45;10.93;;;2.22;;
77078;SDS011;66004;55.096;38.760;2023-04-06T07:15:36;7.28;;;2.08;;
77078;SDS011;66004;55.096;38.760;2023-04-06T07:20:27;46.08;;;3.92;;
77078;SDS011;66004;55.096;38.760;2023-04-06T07:25:18;9.18;;;2.10;;
77078;SDS011;66004;55.096;38.760;2023-04-06T07:27:44;12.77;;;2.53;;
77078;SDS011;66004;55.096;38.760;2023-04-06T07:30:09;10.88;;;2.22;;
77078;SDS011;66004;55.096;38.760;2023-04-06T07:35:01;8.93;;;2.25;;
77078;SDS011;66004;55.096;38.760;2023-04-06T07:39:52;3.60;;;1.77;;
77078;SDS011;66004;55.096;38.760;2023-04-06T07:42:17;5.03;;;2.00;;
77078;SDS011;66004;55.096;38.760;2023-04-06T07:44:43;5.50;;;2.28;;
77078;SDS011;66004;55.096;38.760;2023-04-06T07:47:09;9.32;;;2.50;;
77078;SDS011;66004;55.096;38.760;2023-04-06T07:49:34;11.82;;;2.53;;
77078;SDS011;66004;55.096;38.760;2023-04-06T07:52:00;15.65;;;2.83;;
77078;SDS011;66004;55.096;38.760;2023-04-06T07:54:25;7.07;;;2.03;;
77078;SDS011;66004;55.096;38.760;2023-04-06T07:56:51;6.55;;;1.75;;
77078;SDS011;66004;55.096;38.760;2023-04-06T07:59:17;9.45;;;2.97;;
77078;SDS011;66004;55.096;38.760;2023-04-06T08:01:42;14.35;;;3.25;;
77078;SDS011;66004;55.096;38.760;2023-04-06T08:04:08;15.90;;;2.92;;
77078;SDS011;66004;55.096;38.760;2023-04-06T08:06:33;8.75;;;2.20;;
77078;SDS011;66004;55.096;38.760;2023-04-06T08:09:01;12.50;;;1.75;;
77078;SDS011;66004;55.096;38.760;2023-04-06T08:11:27;14.45;;;2.28;;
77078;SDS011;66004;55.096;38.760;2023-04-06T08:13:53;15.88;;;2.30;;
77078;SDS011;66004;55.096;38.760;2023-04-06T08:16:21;34.17;;;3.80;;
77078;SDS011;66004;55.096;38.760;2023-04-06T08:18:47;39.88;;;3.85;;
77078;SDS011;66004;55.096;38.760;2023-04-06T08:21:12;15.85;;;3.70;;
77078;SDS011;66004;55.096;38.760;2023-04-06T08:23:38;10.45;;;3.30;;
77078;SDS011;66004;55.096;38.760;2023-04-06T08:26:03;9.30;;;3.40;;
77078;SDS011;66004;55.096;38.760;2023-04-06T08:28:29;19.98;;;4.25;;
77078;SDS011;66004;55.096;38.760;2023-04-06T08:30:54;11.68;;;2.67;;
77078;SDS011;66004;55.096;38.760;2023-04-06T08:33:20;15.23;;;2.65;;
77078;SDS011;66004;55.096;38.760;2023-04-06T08:35:45;25.33;;;4.78;;
77078;SDS011;66004;55.096;38.760;2023-04-06T08:38:11;13.80;;;2.00;;
77078;SDS011;66004;55.096;38.760;2023-04-06T08:40:40;8.13;;;2.10;;
77078;SDS011;66004;55.096;38.760;2023-04-06T08:43:12;12.00;;;2.58;;
77078;SDS011;66004;55.096;38.760;2023-04-06T08:45:40;33.05;;;2.78;;
77078;SDS011;66004;55.096;38.760;2023-04-06T08:48:06;17.17;;;1.98;;
77078;SDS011;66004;55.096;38.760;2023-04-06T10:00:04;7.10;;;1.55;;
77078;SDS011;66004;55.096;38.760;2023-04-06T10:02:39;6.53;;;1.20;;
77078;SDS011;66004;55.096;38.760;2023-04-06T10:05:37;6.28;;;1.58;;
77078;SDS011;66004;55.096;38.760;2023-04-06T10:08:11;6.63;;;1.73;;
77078;SDS011;66004;55.096;38.760;2023-04-06T10:10:38;6.10;;;1.30;;
77078;SDS011;66004;55.096;38.760;2023-04-06T10:13:04;6.13;;;1.75;;
77078;SDS011;66004;55.096;38.760;2023-04-06T10:15:30;11.27;;;1.65;;
77078;SDS011;66004;55.096;38.760;2023-04-06T10:17:57;9.68;;;1.85;;
77078;SDS011;66004;55.096;38.760;2023-04-06T10:20:25;13.55;;;2.00;;
77078;SDS011;66004;55.096;38.760;2023-04-06T10:23:09;12.35;;;2.00;;
77078;SDS011;66004;55.096;38.760;2023-04-06T10:25:56;10.10;;;1.75;;
77078;SDS011;66004;55.096;38.760;2023-04-06T10:28:24;10.73;;;2.28;;
77078;SDS011;66004;55.096;38.760;2023-04-06T10:30:56;5.53;;;1.35;;
77078;SDS011;66004;55.096;38.760;2023-04-06T10:33:23;5.40;;;1.33;;
77078;SDS011;66004;55.096;38.760;2023-04-06T10:35:48;9.27;;;1.48;;
77078;SDS011;66004;55.096;38.760;2023-04-06T10:38:14;6.43;;;1.42;;
77078;SDS011;66004;55.096;38.760;2023-04-06T10:40:40;8.50;;;2.00;;
77078;SDS011;66004;55.096;38.760;2023-04-06T10:43:22;6.78;;;1.95;;
77078;SDS011;66004;55.096;38.760;2023-04-06T10:45:57;14.48;;;3.00;;
77078;SDS011;66004;55.096;38.760;2023-04-06T10:48:24;17.75;;;3.17;;
77078;SDS011;66004;55.096;38.760;2023-04-06T10:50:51;15.95;;;4.30;;
77078;SDS011;66004;55.096;38.760;2023-04-06T10:53:24;6.32;;;2.03;;
77078;SDS011;66004;55.096;38.760;2023-04-06T10:55:51;11.25;;;2.83;;
77078;SDS011;66004;55.096;38.760;2023-04-06T10:58:19;11.98;;;2.88;;
77078;SDS011;66004;55.096;38.760;2023-04-06T11:00:48;11.60;;;2.17;;
77078;SDS011;66004;55.096;38.760;2023-04-06T11:03:14;12.80;;;1.95;;
77078;SDS011;66004;55.096;38.760;2023-04-06T11:05:47;16.92;;;2.65;;
77078;SDS011;66004;55.096;38.760;2023-04-06T11:08:28;11.85;;;1.75;;
77078;SDS011;66004;55.096;38.760;2023-04-06T11:16:21;7.97;;;1.90;;
77078;SDS011;66004;55.096;38.760;2023-04-06T11:18:55;15.63;;;2.17;;
77078;SDS011;66004;55.096;38.760;2023-04-06T11:21:41;8.05;;;1.85;;
77078;SDS011;66004;55.096;38.760;2023-04-06T11:26:51;12.50;;;1.98;;
77078;SDS011;66004;55.096;38.760;2023-04-06T11:29:17;12.05;;;2.45;;
77078;SDS011;66004;55.096;38.760;2023-04-06T11:31:47;4.90;;;2.05;;
77078;SDS011;66004;55.096;38.760;2023-04-06T11:34:23;5.97;;;1.50;;
77078;SDS011;66004;55.096;38.760;2023-04-06T11:36:54;9.57;;;1.50;;
77078;SDS011;66004;55.096;38.760;2023-04-06T11:39:24;7.47;;;1.67;;
77078;SDS011;66004;55.096;38.760;2023-04-06T11:41:52;7.63;;;1.60;;
77078;SDS011;66004;55.096;38.760;2023-04-06T11:44:31;8.73;;;1.73;;
77078;SDS011;66004;55.096;38.760;2023-04-06T11:47:02;7.93;;;2.08;;
77078;SDS011;66004;55.096;38.760;2023-04-06T11:49:29;14.63;;;1.80;;
77078;SDS011;66004;55.096;38.760;2023-04-06T11:51:56;12.95;;;1.70;;
77078;SDS011;66004;55.096;38.760;2023-04-06T11:54:32;12.45;;;2.30;;
77078;SDS011;66004;55.096;38.760;2023-04-06T11:56:59;11.05;;;2.17;;
77078;SDS011;66004;55.096;38.760;2023-04-06T11:59:25;4.70;;;2.58;;
77078;SDS011;66004;55.096;38.760;2023-04-06T12:01:52;10.02;;;2.22;;
77078;SDS011;66004;55.096;38.760;2023-04-06T12:04:18;6.70;;;1.60;;
77078;SDS011;66004;55.096;38.760;2023-04-06T12:06:44;4.25;;;1.55;;
77078;SDS011;66004;55.096;38.760;2023-04-06T12:09:10;19.25;;;2.20;;
77078;SDS011;66004;55.096;38.760;2023-04-06T12:11:35;9.63;;;2.00;;
77078;SDS011;66004;55.096;38.760;2023-04-06T12:14:01;9.18;;;2.05;;
77078;SDS011;66004;55.096;38.760;2023-04-06T12:16:29;5.38;;;2.03;;
77078;SDS011;66004;55.096;38.760;2023-04-06T12:18:55;15.25;;;1.30;;
77078;SDS011;66004;55.096;38.760;2023-04-06T12:21:21;8.05;;;1.60;;
77078;SDS011;66004;55.096;38.760;2023-04-06T12:23:46;9.38;;;2.22;;
77078;SDS011;66004;55.096;38.760;2023-04-06T12:26:12;6.60;;;1.45;;
77078;SDS011;66004;55.096;38.760;2023-04-06T12:28:37;6.10;;;1.63;;
77078;SDS011;66004;55.096;38.760;2023-04-06T12:31:03;7.10;;;1.67;;
77078;SDS011;66004;55.096;38.760;2023-04-06T12:33:31;15.13;;;1.73;;
77078;SDS011;66004;55.096;38.760;2023-04-06T12:35:57;7.18;;;1.52;;
77078;SDS011;66004;55.096;38.760;2023-04-06T12:38:22;13.77;;;1.60;;
77078;SDS011;66004;55.096;38.760;2023-04-06T12:40:48;5.53;;;1.70;;
77078;SDS011;66004;55.096;38.760;2023-04-06T12:43:13;2.72;;;1.42;;
77078;SDS011;66004;55.096;38.760;2023-04-06T12:45:39;5.03;;;1.27;;
77078;SDS011;66004;55.096;38.760;2023-04-06T12:48:05;4.90;;;1.52;;
77078;SDS011;66004;55.096;38.760;2023-04-06T12:50:31;14.40;;;2.40;;
77078;SDS011;66004;55.096;38.760;2023-04-06T12:52:57;13.63;;;1.77;;
77078;SDS011;66004;55.096;38.760;2023-04-06T12:55:23;7.10;;;1.63;;
77078;SDS011;66004;55.096;38.760;2023-04-06T12:57:48;6.68;;;1.50;;
77078;SDS011;66004;55.096;38.760;2023-04-06T13:00:14;3.58;;;1.38;;
77078;SDS011;66004;55.096;38.760;2023-04-06T13:02:40;5.25;;;1.20;;
77078;SDS011;66004;55.096;38.760;2023-04-06T13:05:11;5.43;;;1.20;;
77078;SDS011;66004;55.096;38.760;2023-04-06T13:07:37;11.77;;;1.98;;
77078;SDS011;66004;55.096;38.760;2023-04-06T13:10:03;7.47;;;2.47;;
77078;SDS011;66004;55.096;38.760;2023-04-06T13:12:29;8.38;;;1.80;;
77078;SDS011;66004;55.096;38.760;2023-04-06T13:14:54;10.38;;;2.20;;
77078;SDS011;66004;55.096;38.760;2023-04-06T13:17:20;17.70;;;2.13;;
77078;SDS011;66004;55.096;38.760;2023-04-06T13:19:46;4.78;;;1.90;;
77078;SDS011;66004;55.096;38.760;2023-04-06T13:22:11;9.88;;;1.48;;
77078;SDS011;66004;55.096;38.760;2023-04-06T13:24:37;6.13;;;1.60;;
77078;SDS011;66004;55.096;38.760;2023-04-06T13:27:02;8.85;;;1.30;;
77078;SDS011;66004;55.096;38.760;2023-04-06T13:29:28;19.33;;;1.67;;
77078;SDS011;66004;55.096;38.760;2023-04-06T13:31:53;9.77;;;1.90;;
77078;SDS011;66004;55.096;38.760;2023-04-06T13:34:19;6.72;;;2.38;;
77078;SDS011;66004;55.096;38.760;2023-04-06T13:36:45;16.15;;;2.83;;
77078;SDS011;66004;55.096;38.760;2023-04-06T13:39:10;12.30;;;1.77;;
77078;SDS011;66004;55.096;38.760;2023-04-06T13:41:36;7.38;;;1.45;;
77078;SDS011;66004;55.096;38.760;2023-04-06T13:44:01;16.83;;;2.15;;
77078;SDS011;66004;55.096;38.760;2023-04-06T13:46:27;13.18;;;2.20;;
77078;SDS011;66004;55.096;38.760;2023-04-06T13:48:52;14.45;;;2.10;;
77078;SDS011;66004;55.096;38.760;2023-04-06T13:51:27;4.53;;;1.80;;
77078;SDS011;66004;55.096;38.760;2023-04-06T13:53:53;8.95;;;2.45;;
77078;SDS011;66004;55.096;38.760;2023-04-06T13:56:18;8.05;;;2.17;;
77078;SDS011;66004;55.096;38.760;2023-04-06T13:58:44;7.80;;;1.30;;
77078;SDS011;66004;55.096;38.760;2023-04-06T14:01:10;11.90;;;1.67;;
77078;SDS011;66004;55.096;38.760;2023-04-06T14:03:35;3.95;;;1.33;;
77078;SDS011;66004;55.096;38.760;2023-04-06T14:06:08;10.40;;;1.92;;
77078;SDS011;66004;55.096;38.760;2023-04-06T14:08:35;10.32;;;1.35;;
77078;SDS011;66004;55.096;38.760;2023-04-06T14:11:01;11.73;;;1.40;;
77078;SDS011;66004;55.096;38.760;2023-04-06T14:13:26;13.02;;;1.42;;
77078;SDS011;66004;55.096;38.760;2023-04-06T14:15:53;16.58;;;1.95;;
77078;SDS011;66004;55.096;38.760;2023-04-06T14:18:19;22.83;;;1.90;;
77078;SDS011;66004;55.096;38.760;2023-04-06T14:20:46;5.05;;;1.52;;
77078;SDS011;66004;55.096;38.760;2023-04-06T14:23:18;7.07;;;1.30;;
77078;SDS011;66004;55.096;38.760;2023-04-06T14:25:44;13.95;;;2.10;;
77078;SDS011;66004;55.096;38.760;2023-04-06T14:28:09;12.18;;;1.75;;
77078;SDS011;66004;55.096;38.760;2023-04-06T14:30:35;11.50;;;1.90;;
77078;SDS011;66004;55.096;38.760;2023-04-06T14:33:00;6.72;;;1.48;;
77078;SDS011;66004;55.096;38.760;2023-04-06T14:35:26;7.50;;;1.80;;
77078;SDS011;66004;55.096;38.760;2023-04-06T14:37:53;7.40;;;1.60;;
77078;SDS011;66004;55.096;38.760;2023-04-06T14:40:18;19.70;;;2.30;;
77078;SDS011;66004;55.096;38.760;2023-04-06T22:41:23;0.60;;;0.40;;
77078;SDS011;66004;55.096;38.760;2023-04-06T22:43:48;2.83;;;0.45;;
77078;SDS011;66004;55.096;38.760;2023-04-06T22:46:14;1.85;;;0.65;;
77078;SDS011;66004;55.096;38.760;2023-04-06T22:48:39;3.20;;;0.52;;
77078;SDS011;66004;55.096;38.760;2023-04-06T22:51:05;3.67;;;0.55;;
77078;SDS011;66004;55.096;38.760;2023-04-06T22:53:31;2.28;;;0.80;;
77078;SDS011;66004;55.096;38.760;2023-04-06T22:55:56;1.67;;;0.68;;
77078;SDS011;66004;55.096;38.760;2023-04-06T22:58:22;1.95;;;0.50;;
77078;SDS011;66004;55.096;38.760;2023-04-06T23:00:47;3.10;;;0.73;;
77078;SDS011;66004;55.096;38.760;2023-04-06T23:03:13;1.30;;;0.40;;
77078;SDS011;66004;55.096;38.760;2023-04-06T23:05:38;3.10;;;0.43;;
77078;SDS011;66004;55.096;38.760;2023-04-06T23:08:04;2.30;;;0.77;;
77078;SDS011;66004;55.096;38.760;2023-04-06T23:12:55;3.03;;;0.65;;
77078;SDS011;66004;55.096;38.760;2023-04-06T23:15:20;1.75;;;0.70;;
77078;SDS011;66004;55.096;38.760;2023-04-06T23:17:46;2.05;;;0.80;;
77078;SDS011;66004;55.096;38.760;2023-04-06T23:20:11;1.05;;;0.50;;
77078;SDS011;66004;55.096;38.760;2023-04-06T23:22:37;0.98;;;0.50;;
77078;SDS011;66004;55.096;38.760;2023-04-06T23:25:03;3.03;;;0.70;;
77078;SDS011;66004;55.096;38.760;2023-04-06T23:27:28;1.27;;;0.47;;
77078;SDS011;66004;55.096;38.760;2023-04-06T23:29:54;1.67;;;0.70;;
77078;SDS011;66004;55.096;38.760;2023-04-06T23:32:20;2.13;;;0.70;;
77078;SDS011;66004;55.096;38.760;2023-04-06T23:34:45;1.65;;;0.80;;
77078;SDS011;66004;55.096;38.760;2023-04-06T23:37:11;1.70;;;0.60;;
77078;SDS011;66004;55.096;38.760;2023-04-06T23:39:36;2.15;;;0.57;;
77078;SDS011;66004;55.096;38.760;2023-04-06T23:42:03;1.52;;;0.40;;
77078;SDS011;66004;55.096;38.760;2023-04-06T23:44:29;1.77;;;0.70;;
77078;SDS011;66004;55.096;38.760;2023-04-06T23:46:55;3.60;;;0.80;;
77078;SDS011;66004;55.096;38.760;2023-04-06T23:49:21;2.00;;;0.63;;
77078;SDS011;66004;55.096;38.760;2023-04-06T23:51:46;3.55;;;0.90;;
77078;SDS011;66004;55.096;38.760;2023-04-06T23:54:12;1.35;;;0.60;;
77078;SDS011;66004;55.096;38.760;2023-04-06T23:56:37;1.33;;;0.70;;
77078;SDS011;66004;55.096;38.760;2023-04-06T23:59:03;1.75;;;0.75;;
